• Join FlightAware (Why Join?)
  • Login
  • US Flag 
04:08PM EDT


 

Airport Tracker/Info


-or-


 

Live Flight TrackerFlight Track Log ✈ EJA831 ✈ 28-Apr-2013 ✈ KRIC - KFWA

Flight Track Log - Related Links

Times and Time Zones

All times are in EDT time to prevent confusion due to time zone crossing. See the EJA831 flight status page for this flight to view local times or setup timezone preferences in your user account.

Time Position Orientation Groundspeed Altitude Reporting Facility
EDT Latitude Longitude Course Direction KTS MPH feet Rate Location/Type
10:05AM 37.4297 -77.3858 228° Southwest 250 288 7,400  Level Washington Center
10:06AM 37.4200 -77.4772 262° West 255 293 9,600 1,860 Climbing Washington Center
10:07AM 37.4081 -77.5736 261° West 267 307 11,300 1,680 Climbing Washington Center
10:08AM 37.3961 -77.6753 262° West 288 331 13,000 2,160 Climbing Washington Center
10:09AM 37.3836 -77.7822 262° West 303 349 15,600 2,460 Climbing Washington Center
10:10AM 37.3692 -77.8861 260° West 308 354 17,900 2,100 Climbing Washington Center
10:11AM 37.3567 -77.9903 261° West 314 361 19,900 1,380 Climbing Washington Center
10:12AM 37.3336 -78.0994 255° West 314 361 20,800 1,500 Climbing Washington Center
10:13AM 37.3150 -78.1953 256° West 319 367 23,000 2,220 Climbing Washington Center
10:14AM 37.2919 -78.2911 253° West 309 356 25,200 1,500 Climbing Washington Center
10:15AM 37.3272 -78.3839 296° West 284 327 26,000 780 Climbing Washington Center
10:16AM 37.3942 -78.4672 315° West 293 337 26,800 1,620 Climbing Washington Center
10:17AM 37.4733 -78.5619 316° Northwest 336 387 29,300 2,580 Climbing Washington Center
10:18AM 37.5378 -78.6456 314° West 342 394 32,000 2,520 Climbing Washington Center
10:19AM 37.6006 -78.7242 315° West 332 382 34,300 1,980 Climbing Washington Center
10:20AM 37.6631 -78.8003 316° Northwest 321 369 36,000 780 Climbing Washington Center
10:21AM 37.7217 -78.8761 314° West 321 369 36,000  Level Washington Center
10:22AM 37.7881 -78.9606 315° West 327 376 36,000  Level Washington Center
10:23AM 37.8567 -79.0478 315° West 333 383 36,000  Level Washington Center
10:24AM 37.9244 -79.1508 310° West 345 397 36,000  Level Washington Center
10:25AM 37.9778 -79.2536 303° West 345 397 36,000  Level Washington Center
10:26AM 38.0328 -79.3592 304° West 351 404 36,000  Level Washington Center
10:27AM 38.0800 -79.4511 303° West 351 404 36,000  Level Washington Center
10:28AM 38.1328 -79.5542 303° West 351 404 36,000  Level Washington Center
10:29AM 38.1836 -79.6572 302° West 351 404 36,000  Level Washington Center
10:30AM 38.2386 -79.7608 304° West 351 404 36,000  Level Washington Center
10:31AM 38.2969 -79.8753 303° West 351 404 36,000  Level Washington Center
10:32AM 38.3456 -79.9758 302° West 351 404 36,000  Level Washington Center
10:33AM 38.4000 -80.0825 303° West 351 404 36,000  Level Washington Center
10:34AM 38.4522 -80.1864 303° West 351 404 36,000  Level Washington Center
10:35AM 38.4989 -80.2794 303° West 351 404 36,000  Level Washington Center
10:37AM 38.5822 -80.4392 304° West 354 407 36,000  Level Indianapolis Center
10:38AM 38.6358 -80.5458 303° West 353 406 36,000  Level Indianapolis Center
10:39AM 38.6886 -80.6517 303° West 353 406 36,000  Level Indianapolis Center
10:40AM 38.7414 -80.7581 302° West 354 407 36,000  Level Indianapolis Center
10:41AM 38.7936 -80.8633 302° West 351 404 36,000  Level Indianapolis Center
10:42AM 38.8458 -80.9711 302° West 354 407 36,000  Level Indianapolis Center
10:43AM 38.9008 -81.0786 303° West 360 414 36,000  Level Indianapolis Center
10:44AM 38.9533 -81.1875 302° West 362 417 36,000  Level Indianapolis Center
10:45AM 39.0178 -81.3200 302° West 366 421 36,000  Level Indianapolis Center
10:46AM 39.0722 -81.4317 302° West 370 426 36,000  Level Indianapolis Center
10:47AM 39.1261 -81.5431 302° West 370 426 36,000  Level Indianapolis Center
10:48AM 39.1803 -81.6556 302° West 371 427 36,000  Level Indianapolis Center
10:49AM 39.2347 -81.7686 302° West 372 428 36,000  Level Indianapolis Center
10:50AM 39.2881 -81.8819 301° West 371 427 36,000  Level Indianapolis Center
10:51AM 39.3431 -81.9956 302° West 373 429 36,000  Level Indianapolis Center
10:52AM 39.4081 -82.1342 301° West 376 433 36,000 -300 Level Indianapolis Center
10:53AM 39.4567 -82.2364 302° West 375 432 35,400 -540 Descending Indianapolis Center
10:54AM 39.5081 -82.3458 301° West 354 407 35,000 -240 Descending Indianapolis Center
10:55AM 39.5586 -82.4533 301° West 353 406 35,000 -900 Level Indianapolis Center
10:56AM 39.6231 -82.5894 302° West 375 432 33,200 -1,860 Descending Indianapolis Center
10:57AM 39.6775 -82.7044 302° West 372 428 31,300 -1,620 Descending Indianapolis Center
10:58AM 39.7322 -82.8231 301° West 379 436 30,000 -1,140 Descending Indianapolis Center
10:59AM 39.7864 -82.9394 301° West 375 432 29,000 -1,020 Descending Indianapolis Center
11:00AM 39.8394 -83.0556 301° West 372 428 28,000 -540 Descending Indianapolis Center
11:01AM 39.8917 -83.1669 301° West 362 417 28,000  Level Indianapolis Center
11:02AM 39.9433 -83.2808 301° West 364 419 28,000  Level Indianapolis Center
11:03AM 39.9950 -83.3942 301° West 366 421 28,000  Level Indianapolis Center
11:04AM 40.0553 -83.5275 301° West 368 423 28,000  Level Indianapolis Center
11:05AM 40.1083 -83.6439 301° West 371 427 28,000  Level Indianapolis Center
11:06AM 40.1622 -83.7622 301° West 376 433 28,000  Level Indianapolis Center
11:07AM 40.2158 -83.8822 300° West 379 436 28,000 -60 Level Indianapolis Center
11:08AM 40.2700 -84.0019 301° West 379 436 27,900 -1,380 Descending Indianapolis Center
11:09AM 40.3347 -84.1197 306° West 395 455 25,200 -2,700 Descending Indianapolis Center
11:10AM 40.4039 -84.2319 309° West 392 451 22,400 -2,760 Descending Indianapolis Center
11:11AM 40.4686 -84.3375 309° West 372 428 19,600 -2,640 Descending Indianapolis Center
11:12AM 40.5292 -84.4400 308° West 353 406 17,000 -2,460 Descending Indianapolis Center
11:13AM 40.5797 -84.5425 303° West 332 382 14,600 -2,220 Descending Indianapolis Center
11:14AM 40.6058 -84.6433 289° West 291 335 12,500 -2,040 Descending Indianapolis Center
11:16AM 40.6300 -84.7411 288° West 280 322 10,500 -2,100 Descending Indianapolis Center
11:17AM 40.6589 -84.8578 288° West 285 328 8,300 -2,040 Descending Indianapolis Center
11:18AM 40.6828 -84.9569 288° West 277 319 6,400 -1,860 Descending Indianapolis Center
11:19AM 40.7058 -85.0500 288° West 270 311 4,500 -1,560 Descending Indianapolis Center
11:20AM 40.7269 -85.1389 287° West 257 296 3,100 -720 Descending Chicago Center
11:21AM 40.7497 -85.2294 288° West 256 295 3,000 -60 Descending Chicago Center
11:22AM 40.7908 -85.3092 304° West 260 299 3,000  Level Chicago Center
11:23AM 40.8492 -85.3522 331° Northwest 259 298 3,000 -60 Level Chicago Center
11:24AM 40.8883 -85.3036 43° Northeast 217 250 2,900 -540 Descending Chicago Center
11:25AM 40.9219 -85.2619 43° Northeast 168 193 2,000 -660 Descending Chicago Center
11:26AM 40.9447 -85.2322 45° Northeast 153 176 1,600 -420 Descending Chicago Center